sensor_id;sensor_type;location;lat;lon;timestamp;temperature;humidity
37158;DHT22;23050;51.776;22.638;2023-05-29T00:02:04;8.20;99.90
37158;DHT22;23050;51.776;22.638;2023-05-29T00:04:30;8.20;99.90
37158;DHT22;23050;51.776;22.638;2023-05-29T00:06:55;8.20;99.90
37158;DHT22;23050;51.776;22.638;2023-05-29T00:09:21;8.20;99.90
37158;DHT22;23050;51.776;22.638;2023-05-29T00:11:46;8.20;99.90
37158;DHT22;23050;51.776;22.638;2023-05-29T00:14:16;8.10;99.90
37158;DHT22;23050;51.776;22.638;2023-05-29T00:16:44;8.10;99.90
37158;DHT22;23050;51.776;22.638;2023-05-29T00:19:10;8.10;99.90
37158;DHT22;23050;51.776;22.638;2023-05-29T00:21:35;8.00;99.90
37158;DHT22;23050;51.776;22.638;2023-05-29T00:24:00;8.00;99.90
37158;DHT22;23050;51.776;22.638;2023-05-29T00:26:26;8.00;99.90
37158;DHT22;23050;51.776;22.638;2023-05-29T00:28:51;7.90;99.90
37158;DHT22;23050;51.776;22.638;2023-05-29T00:31:17;7.90;99.90
37158;DHT22;23050;51.776;22.638;2023-05-29T00:33:43;7.90;99.90
37158;DHT22;23050;51.776;22.638;2023-05-29T00:36:08;7.80;99.90
37158;DHT22;23050;51.776;22.638;2023-05-29T00:38:33;7.70;99.90
37158;DHT22;23050;51.776;22.638;2023-05-29T00:40:59;7.70;99.90
37158;DHT22;23050;51.776;22.638;2023-05-29T00:43:24;7.70;99.90
37158;DHT22;23050;51.776;22.638;2023-05-29T00:45:50;7.70;99.90
37158;DHT22;23050;51.776;22.638;2023-05-29T00:48:15;7.70;99.90
37158;DHT22;23050;51.776;22.638;2023-05-29T00:50:43;7.70;99.90
37158;DHT22;23050;51.776;22.638;2023-05-29T00:53:09;7.60;99.90
37158;DHT22;23050;51.776;22.638;2023-05-29T00:55:34;7.60;99.90
37158;DHT22;23050;51.776;22.638;2023-05-29T00:58:00;7.60;99.90
37158;DHT22;23050;51.776;22.638;2023-05-29T01:00:25;7.60;99.90
37158;DHT22;23050;51.776;22.638;2023-05-29T01:02:51;7.60;99.90
37158;DHT22;23050;51.776;22.638;2023-05-29T01:05:17;7.50;99.90
37158;DHT22;23050;51.776;22.638;2023-05-29T01:07:45;7.50;99.90
37158;DHT22;23050;51.776;22.638;2023-05-29T01:10:10;7.50;99.90
37158;DHT22;23050;51.776;22.638;2023-05-29T01:12:38;7.40;99.90
37158;DHT22;23050;51.776;22.638;2023-05-29T01:28:05;7.40;99.90
37158;DHT22;23050;51.776;22.638;2023-05-29T01:30:31;7.30;99.90
37158;DHT22;23050;51.776;22.638;2023-05-29T01:32:58;7.30;99.90
37158;DHT22;23050;51.776;22.638;2023-05-29T01:35:24;7.30;99.90
37158;DHT22;23050;51.776;22.638;2023-05-29T01:37:49;7.30;99.90
37158;DHT22;23050;51.776;22.638;2023-05-29T01:40:15;7.20;99.90
37158;DHT22;23050;51.776;22.638;2023-05-29T01:42:40;7.20;99.90
37158;DHT22;23050;51.776;22.638;2023-05-29T01:45:06;7.20;99.90
37158;DHT22;23050;51.776;22.638;2023-05-29T01:47:32;7.20;99.90
37158;DHT22;23050;51.776;22.638;2023-05-29T01:49:58;7.20;99.90
37158;DHT22;23050;51.776;22.638;2023-05-29T01:52:25;7.10;99.90
37158;DHT22;23050;51.776;22.638;2023-05-29T01:54:50;7.20;99.90
37158;DHT22;23050;51.776;22.638;2023-05-29T01:57:16;7.10;99.90
37158;DHT22;23050;51.776;22.638;2023-05-29T01:59:41;7.00;99.90
37158;DHT22;23050;51.776;22.638;2023-05-29T02:02:07;7.00;99.90
37158;DHT22;23050;51.776;22.638;2023-05-29T02:04:33;7.00;99.90
37158;DHT22;23050;51.776;22.638;2023-05-29T02:06:58;7.00;99.90
37158;DHT22;23050;51.776;22.638;2023-05-29T02:09:24;6.90;99.90
37158;DHT22;23050;51.776;22.638;2023-05-29T02:11:50;6.90;99.90
37158;DHT22;23050;51.776;22.638;2023-05-29T02:14:16;6.90;99.90
37158;DHT22;23050;51.776;22.638;2023-05-29T02:16:41;6.80;99.90
37158;DHT22;23050;51.776;22.638;2023-05-29T02:19:09;6.80;99.90
37158;DHT22;23050;51.776;22.638;2023-05-29T02:21:37;6.80;99.90
37158;DHT22;23050;51.776;22.638;2023-05-29T02:24:03;6.80;99.90
37158;DHT22;23050;51.776;22.638;2023-05-29T02:26:28;6.80;99.90
37158;DHT22;23050;51.776;22.638;2023-05-29T02:28:54;6.80;99.90
37158;DHT22;23050;51.776;22.638;2023-05-29T02:31:19;6.70;99.90
37158;DHT22;23050;51.776;22.638;2023-05-29T02:33:45;6.70;99.90
37158;DHT22;23050;51.776;22.638;2023-05-29T02:36:10;6.70;99.90
37158;DHT22;23050;51.776;22.638;2023-05-29T02:38:37;6.80;99.90
37158;DHT22;23050;51.776;22.638;2023-05-29T02:41:02;6.80;99.90
37158;DHT22;23050;51.776;22.638;2023-05-29T02:43:28;6.80;99.90
37158;DHT22;23050;51.776;22.638;2023-05-29T02:45:53;6.80;99.90
37158;DHT22;23050;51.776;22.638;2023-05-29T02:48:19;6.80;99.90
37158;DHT22;23050;51.776;22.638;2023-05-29T02:50:44;6.80;99.90
37158;DHT22;23050;51.776;22.638;2023-05-29T02:53:10;6.80;99.90
37158;DHT22;23050;51.776;22.638;2023-05-29T02:55:35;6.80;99.90
37158;DHT22;23050;51.776;22.638;2023-05-29T02:58:02;6.80;99.90
37158;DHT22;23050;51.776;22.638;2023-05-29T03:00:27;6.80;99.90
37158;DHT22;23050;51.776;22.638;2023-05-29T03:02:54;6.80;99.90
37158;DHT22;23050;51.776;22.638;2023-05-29T03:05:19;6.90;99.90
37158;DHT22;23050;51.776;22.638;2023-05-29T03:07:45;6.90;99.90
37158;DHT22;23050;51.776;22.638;2023-05-29T03:10:10;7.00;99.90
37158;DHT22;23050;51.776;22.638;2023-05-29T03:12:36;7.00;99.90
37158;DHT22;23050;51.776;22.638;2023-05-29T03:15:02;7.10;99.90
37158;DHT22;23050;51.776;22.638;2023-05-29T03:17:27;7.20;99.90
37158;DHT22;23050;51.776;22.638;2023-05-29T03:19:53;7.20;99.90
37158;DHT22;23050;51.776;22.638;2023-05-29T03:22:18;7.20;99.90
37158;DHT22;23050;51.776;22.638;2023-05-29T03:24:44;7.40;99.90
37158;DHT22;23050;51.776;22.638;2023-05-29T03:27:09;7.40;99.90
37158;DHT22;23050;51.776;22.638;2023-05-29T03:29:35;7.50;99.90
37158;DHT22;23050;51.776;22.638;2023-05-29T03:32:01;7.60;99.90
37158;DHT22;23050;51.776;22.638;2023-05-29T03:34:27;7.70;99.90
37158;DHT22;23050;51.776;22.638;2023-05-29T03:36:53;7.80;99.90
37158;DHT22;23050;51.776;22.638;2023-05-29T03:39:18;7.90;99.90
37158;DHT22;23050;51.776;22.638;2023-05-29T03:41:44;8.00;99.90
37158;DHT22;23050;51.776;22.638;2023-05-29T03:44:09;8.10;99.90
37158;DHT22;23050;51.776;22.638;2023-05-29T03:46:35;8.20;99.90
37158;DHT22;23050;51.776;22.638;2023-05-29T03:49:01;8.30;99.90
37158;DHT22;23050;51.776;22.638;2023-05-29T03:51:26;8.40;99.90
37158;DHT22;23050;51.776;22.638;2023-05-29T03:53:51;8.50;99.90
37158;DHT22;23050;51.776;22.638;2023-05-29T03:56:17;8.70;99.90
37158;DHT22;23050;51.776;22.638;2023-05-29T03:58:42;8.80;99.90
37158;DHT22;23050;51.776;22.638;2023-05-29T04:01:08;8.90;99.90
37158;DHT22;23050;51.776;22.638;2023-05-29T04:03:34;9.00;99.90
37158;DHT22;23050;51.776;22.638;2023-05-29T04:06:00;9.20;99.90
37158;DHT22;23050;51.776;22.638;2023-05-29T04:08:26;9.30;99.90
37158;DHT22;23050;51.776;22.638;2023-05-29T04:10:51;9.40;99.90
37158;DHT22;23050;51.776;22.638;2023-05-29T04:13:19;9.40;99.90
37158;DHT22;23050;51.776;22.638;2023-05-29T04:15:45;9.60;99.90
37158;DHT22;23050;51.776;22.638;2023-05-29T04:18:10;9.70;99.90
37158;DHT22;23050;51.776;22.638;2023-05-29T04:20:35;9.80;99.90
37158;DHT22;23050;51.776;22.638;2023-05-29T04:23:01;10.00;99.90
37158;DHT22;23050;51.776;22.638;2023-05-29T04:25:26;10.20;99.90
37158;DHT22;23050;51.776;22.638;2023-05-29T04:27:52;10.30;99.90
37158;DHT22;23050;51.776;22.638;2023-05-29T04:30:17;10.40;99.90
37158;DHT22;23050;51.776;22.638;2023-05-29T04:32:43;10.70;99.90
37158;DHT22;23050;51.776;22.638;2023-05-29T04:35:09;10.80;99.90
37158;DHT22;23050;51.776;22.638;2023-05-29T04:37:35;10.90;99.90
37158;DHT22;23050;51.776;22.638;2023-05-29T04:40:07;11.10;99.90
37158;DHT22;23050;51.776;22.638;2023-05-29T04:42:37;11.30;99.90
37158;DHT22;23050;51.776;22.638;2023-05-29T04:45:03;11.40;99.90
37158;DHT22;23050;51.776;22.638;2023-05-29T04:47:30;11.50;99.90
37158;DHT22;23050;51.776;22.638;2023-05-29T04:49:58;11.60;99.90
37158;DHT22;23050;51.776;22.638;2023-05-29T04:52:24;11.80;99.90
37158;DHT22;23050;51.776;22.638;2023-05-29T04:54:50;11.90;99.90
37158;DHT22;23050;51.776;22.638;2023-05-29T04:57:19;12.00;99.90
37158;DHT22;23050;51.776;22.638;2023-05-29T05:00:05;12.20;99.90
37158;DHT22;23050;51.776;22.638;2023-05-29T05:02:32;12.40;99.90
37158;DHT22;23050;51.776;22.638;2023-05-29T05:04:57;12.60;99.90
37158;DHT22;23050;51.776;22.638;2023-05-29T05:07:26;12.80;99.90
37158;DHT22;23050;51.776;22.638;2023-05-29T05:09:51;13.00;99.90
37158;DHT22;23050;51.776;22.638;2023-05-29T05:12:17;13.20;99.90
37158;DHT22;23050;51.776;22.638;2023-05-29T05:14:42;13.40;99.90
37158;DHT22;23050;51.776;22.638;2023-05-29T05:17:07;13.70;99.90
37158;DHT22;23050;51.776;22.638;2023-05-29T05:19:33;14.10;99.90
37158;DHT22;23050;51.776;22.638;2023-05-29T05:21:58;14.50;99.30
37158;DHT22;23050;51.776;22.638;2023-05-29T05:24:24;15.10;96.00
37158;DHT22;23050;51.776;22.638;2023-05-29T05:26:49;15.90;29.80
37158;DHT22;23050;51.776;22.638;2023-05-29T05:29:15;16.90;1.00
37158;DHT22;23050;51.776;22.638;2023-05-29T05:31:40;18.30;1.00
37158;DHT22;23050;51.776;22.638;2023-05-29T05:34:06;20.10;1.00
37158;DHT22;23050;51.776;22.638;2023-05-29T05:36:31;21.30;1.00
37158;DHT22;23050;51.776;22.638;2023-05-29T05:38:58;22.00;1.00
37158;DHT22;23050;51.776;22.638;2023-05-29T05:41:23;23.20;1.00
37158;DHT22;23050;51.776;22.638;2023-05-29T05:43:49;24.30;1.00
37158;DHT22;23050;51.776;22.638;2023-05-29T05:46:15;25.30;1.00
37158;DHT22;23050;51.776;22.638;2023-05-29T05:48:42;25.40;1.00
37158;DHT22;23050;51.776;22.638;2023-05-29T05:51:07;25.40;1.00
37158;DHT22;23050;51.776;22.638;2023-05-29T05:53:33;25.90;1.00
37158;DHT22;23050;51.776;22.638;2023-05-29T05:55:58;26.80;1.00
37158;DHT22;23050;51.776;22.638;2023-05-29T05:58:24;27.00;1.00
37158;DHT22;23050;51.776;22.638;2023-05-29T06:00:49;27.20;1.00
37158;DHT22;23050;51.776;22.638;2023-05-29T06:03:17;28.00;1.00
37158;DHT22;23050;51.776;22.638;2023-05-29T06:05:43;28.60;1.00
37158;DHT22;23050;51.776;22.638;2023-05-29T06:08:08;28.80;1.00
37158;DHT22;23050;51.776;22.638;2023-05-29T06:10:34;28.60;1.00
37158;DHT22;23050;51.776;22.638;2023-05-29T06:12:59;28.90;1.00
37158;DHT22;23050;51.776;22.638;2023-05-29T06:15:25;29.30;1.00
37158;DHT22;23050;51.776;22.638;2023-05-29T06:17:50;30.10;1.00
37158;DHT22;23050;51.776;22.638;2023-05-29T06:20:17;30.60;1.00
37158;DHT22;23050;51.776;22.638;2023-05-29T06:22:42;30.80;1.00
37158;DHT22;23050;51.776;22.638;2023-05-29T06:25:08;31.10;1.00
37158;DHT22;23050;51.776;22.638;2023-05-29T06:27:35;31.40;1.00
37158;DHT22;23050;51.776;22.638;2023-05-29T06:30:00;31.60;1.00
37158;DHT22;23050;51.776;22.638;2023-05-29T06:32:25;32.10;1.00
37158;DHT22;23050;51.776;22.638;2023-05-29T06:34:53;31.80;1.00
37158;DHT22;23050;51.776;22.638;2023-05-29T06:37:19;30.60;1.00
37158;DHT22;23050;51.776;22.638;2023-05-29T06:39:44;29.80;1.00
37158;DHT22;23050;51.776;22.638;2023-05-29T06:42:10;29.30;1.00
37158;DHT22;23050;51.776;22.638;2023-05-29T06:44:35;29.80;1.00
37158;DHT22;23050;51.776;22.638;2023-05-29T06:47:01;29.70;1.00
37158;DHT22;23050;51.776;22.638;2023-05-29T06:49:26;29.80;1.00
37158;DHT22;23050;51.776;22.638;2023-05-29T06:51:52;30.60;1.00
37158;DHT22;23050;51.776;22.638;2023-05-29T06:54:17;31.50;1.00
37158;DHT22;23050;51.776;22.638;2023-05-29T06:56:43;32.20;1.00
37158;DHT22;23050;51.776;22.638;2023-05-29T06:59:08;32.30;1.00
37158;DHT22;23050;51.776;22.638;2023-05-29T07:01:43;32.00;1.00
37158;DHT22;23050;51.776;22.638;2023-05-29T07:04:08;31.40;1.00
37158;DHT22;23050;51.776;22.638;2023-05-29T07:06:33;31.70;1.00
37158;DHT22;23050;51.776;22.638;2023-05-29T07:08:59;31.50;1.00
37158;DHT22;23050;51.776;22.638;2023-05-29T07:11:25;32.40;1.00
37158;DHT22;23050;51.776;22.638;2023-05-29T07:13:53;32.90;1.00
37158;DHT22;23050;51.776;22.638;2023-05-29T07:16:18;33.10;1.00
37158;DHT22;23050;51.776;22.638;2023-05-29T07:18:44;33.20;1.00
37158;DHT22;23050;51.776;22.638;2023-05-29T07:21:09;32.70;1.00
37158;DHT22;23050;51.776;22.638;2023-05-29T07:23:35;32.60;1.00
37158;DHT22;23050;51.776;22.638;2023-05-29T07:26:01;32.80;1.00
37158;DHT22;23050;51.776;22.638;2023-05-29T07:28:26;33.00;1.00
37158;DHT22;23050;51.776;22.638;2023-05-29T07:30:52;33.10;1.00
37158;DHT22;23050;51.776;22.638;2023-05-29T07:33:17;32.90;1.00
37158;DHT22;23050;51.776;22.638;2023-05-29T07:35:43;33.10;1.00
37158;DHT22;23050;51.776;22.638;2023-05-29T07:38:08;32.90;1.00
37158;DHT22;23050;51.776;22.638;2023-05-29T07:40:34;32.40;1.00
37158;DHT22;23050;51.776;22.638;2023-05-29T07:42:59;33.70;1.00
37158;DHT22;23050;51.776;22.638;2023-05-29T07:45:25;34.30;1.00
37158;DHT22;23050;51.776;22.638;2023-05-29T07:47:50;33.70;1.00
37158;DHT22;23050;51.776;22.638;2023-05-29T07:50:16;32.90;1.00
37158;DHT22;23050;51.776;22.638;2023-05-29T07:52:42;31.70;1.00
37158;DHT22;23050;51.776;22.638;2023-05-29T07:55:07;31.90;1.00
37158;DHT22;23050;51.776;22.638;2023-05-29T07:57:33;31.40;1.00
37158;DHT22;23050;51.776;22.638;2023-05-29T07:59:58;30.00;1.00
37158;DHT22;23050;51.776;22.638;2023-05-29T08:02:24;29.60;1.00
37158;DHT22;23050;51.776;22.638;2023-05-29T08:04:49;29.80;1.00
37158;DHT22;23050;51.776;22.638;2023-05-29T08:07:15;30.30;1.00
37158;DHT22;23050;51.776;22.638;2023-05-29T08:09:40;29.70;1.00
37158;DHT22;23050;51.776;22.638;2023-05-29T08:14:50;31.10;1.00
37158;DHT22;23050;51.776;22.638;2023-05-29T08:17:16;31.80;1.00
37158;DHT22;23050;51.776;22.638;2023-05-29T08:19:41;31.90;1.00
37158;DHT22;23050;51.776;22.638;2023-05-29T08:22:06;32.10;1.00
37158;DHT22;23050;51.776;22.638;2023-05-29T08:24:32;30.60;1.00
37158;DHT22;23050;51.776;22.638;2023-05-29T08:26:58;29.70;1.00
37158;DHT22;23050;51.776;22.638;2023-05-29T08:29:23;30.10;1.00
37158;DHT22;23050;51.776;22.638;2023-05-29T08:31:49;30.90;1.00
37158;DHT22;23050;51.776;22.638;2023-05-29T08:34:14;31.90;1.00
37158;DHT22;23050;51.776;22.638;2023-05-29T08:36:40;32.20;1.00
37158;DHT22;23050;51.776;22.638;2023-05-29T08:39:06;31.60;1.00
37158;DHT22;23050;51.776;22.638;2023-05-29T08:41:41;31.00;1.00
37158;DHT22;23050;51.776;22.638;2023-05-29T08:44:08;31.00;1.00
37158;DHT22;23050;51.776;22.638;2023-05-29T08:46:34;30.80;1.00
37158;DHT22;23050;51.776;22.638;2023-05-29T08:49:01;29.80;1.00
37158;DHT22;23050;51.776;22.638;2023-05-29T08:51:27;28.70;1.00
37158;DHT22;23050;51.776;22.638;2023-05-29T08:53:56;28.50;1.00
37158;DHT22;23050;51.776;22.638;2023-05-29T08:56:22;28.90;1.00
37158;DHT22;23050;51.776;22.638;2023-05-29T08:58:48;29.50;1.00
37158;DHT22;23050;51.776;22.638;2023-05-29T09:01:14;29.70;1.00
37158;DHT22;23050;51.776;22.638;2023-05-29T09:03:39;30.00;1.00
37158;DHT22;23050;51.776;22.638;2023-05-29T09:06:07;29.70;1.00
37158;DHT22;23050;51.776;22.638;2023-05-29T09:08:34;29.50;1.00
37158;DHT22;23050;51.776;22.638;2023-05-29T09:10:59;29.30;1.00
37158;DHT22;23050;51.776;22.638;2023-05-29T09:13:25;29.80;1.00
37158;DHT22;23050;51.776;22.638;2023-05-29T09:15:59;30.40;1.00
37158;DHT22;23050;51.776;22.638;2023-05-29T09:18:28;29.70;1.00
37158;DHT22;23050;51.776;22.638;2023-05-29T09:20:53;30.00;1.00
37158;DHT22;23050;51.776;22.638;2023-05-29T09:23:19;30.80;1.00
37158;DHT22;23050;51.776;22.638;2023-05-29T09:25:44;31.50;1.00
37158;DHT22;23050;51.776;22.638;2023-05-29T09:28:17;31.90;1.00
37158;DHT22;23050;51.776;22.638;2023-05-29T09:30:44;31.80;1.00
37158;DHT22;23050;51.776;22.638;2023-05-29T09:33:11;31.80;1.00
37158;DHT22;23050;51.776;22.638;2023-05-29T09:35:37;31.10;1.00
37158;DHT22;23050;51.776;22.638;2023-05-29T09:38:04;31.00;1.00
37158;DHT22;23050;51.776;22.638;2023-05-29T09:40:30;30.30;1.00
37158;DHT22;23050;51.776;22.638;2023-05-29T09:43:00;28.70;1.00
37158;DHT22;23050;51.776;22.638;2023-05-29T09:45:28;28.00;1.00
37158;DHT22;23050;51.776;22.638;2023-05-29T09:47:53;28.00;1.00
37158;DHT22;23050;51.776;22.638;2023-05-29T09:50:20;28.40;1.00
37158;DHT22;23050;51.776;22.638;2023-05-29T09:52:50;28.40;1.00
37158;DHT22;23050;51.776;22.638;2023-05-29T09:55:20;28.40;1.00
37158;DHT22;23050;51.776;22.638;2023-05-29T09:57:46;28.60;1.00
37158;DHT22;23050;51.776;22.638;2023-05-29T10:00:13;29.80;1.00
37158;DHT22;23050;51.776;22.638;2023-05-29T10:02:39;31.20;1.00
37158;DHT22;23050;51.776;22.638;2023-05-29T10:05:05;31.30;1.00
37158;DHT22;23050;51.776;22.638;2023-05-29T10:07:32;31.10;1.00
37158;DHT22;23050;51.776;22.638;2023-05-29T10:10:03;30.00;1.00
37158;DHT22;23050;51.776;22.638;2023-05-29T10:12:31;28.50;1.00
37158;DHT22;23050;51.776;22.638;2023-05-29T10:14:59;28.60;1.00
37158;DHT22;23050;51.776;22.638;2023-05-29T10:17:32;28.30;1.00
37158;DHT22;23050;51.776;22.638;2023-05-29T10:19:58;28.50;1.00
37158;DHT22;23050;51.776;22.638;2023-05-29T10:22:26;28.70;1.00
37158;DHT22;23050;51.776;22.638;2023-05-29T10:24:52;29.00;1.00
37158;DHT22;23050;51.776;22.638;2023-05-29T10:27:18;28.30;1.00
37158;DHT22;23050;51.776;22.638;2023-05-29T10:29:49;28.70;1.00
37158;DHT22;23050;51.776;22.638;2023-05-29T10:32:20;29.20;1.00
37158;DHT22;23050;51.776;22.638;2023-05-29T10:39:47;31.00;1.00
37158;DHT22;23050;51.776;22.638;2023-05-29T10:44:57;29.60;1.00
37158;DHT22;23050;51.776;22.638;2023-05-29T10:47:23;29.40;1.00
37158;DHT22;23050;51.776;22.638;2023-05-29T10:49:49;28.20;1.00
37158;DHT22;23050;51.776;22.638;2023-05-29T10:52:15;27.10;1.00
37158;DHT22;23050;51.776;22.638;2023-05-29T10:54:49;27.10;1.00
37158;DHT22;23050;51.776;22.638;2023-05-29T10:57:15;26.40;1.00
37158;DHT22;23050;51.776;22.638;2023-05-29T10:59:41;26.80;1.00
37158;DHT22;23050;51.776;22.638;2023-05-29T11:02:06;27.70;1.00
37158;DHT22;23050;51.776;22.638;2023-05-29T11:04:34;27.10;1.00
37158;DHT22;23050;51.776;22.638;2023-05-29T11:06:59;27.00;1.00
37158;DHT22;23050;51.776;22.638;2023-05-29T11:09:26;27.20;1.00
37158;DHT22;23050;51.776;22.638;2023-05-29T11:14:45;26.70;1.00
37158;DHT22;23050;51.776;22.638;2023-05-29T11:19:56;28.10;1.00
37158;DHT22;23050;51.776;22.638;2023-05-29T11:22:25;28.80;1.00
37158;DHT22;23050;51.776;22.638;2023-05-29T11:24:52;28.00;1.00
37158;DHT22;23050;51.776;22.638;2023-05-29T11:27:18;27.20;1.00
37158;DHT22;23050;51.776;22.638;2023-05-29T11:29:44;27.50;1.00
37158;DHT22;23050;51.776;22.638;2023-05-29T11:32:12;27.00;1.00
37158;DHT22;23050;51.776;22.638;2023-05-29T11:34:40;27.20;1.00
37158;DHT22;23050;51.776;22.638;2023-05-29T11:37:06;27.00;1.00
37158;DHT22;23050;51.776;22.638;2023-05-29T11:39:35;26.70;1.00
37158;DHT22;23050;51.776;22.638;2023-05-29T11:42:01;26.70;1.00
37158;DHT22;23050;51.776;22.638;2023-05-29T11:44:27;26.80;1.00
37158;DHT22;23050;51.776;22.638;2023-05-29T11:46:59;27.10;1.00
37158;DHT22;23050;51.776;22.638;2023-05-29T11:49:28;26.30;1.00
37158;DHT22;23050;51.776;22.638;2023-05-29T11:51:53;26.00;1.00
37158;DHT22;23050;51.776;22.638;2023-05-29T11:54:19;26.00;1.00
37158;DHT22;23050;51.776;22.638;2023-05-29T11:56:45;26.40;1.00
37158;DHT22;23050;51.776;22.638;2023-05-29T11:59:12;26.50;1.00
37158;DHT22;23050;51.776;22.638;2023-05-29T12:01:38;26.30;1.00
37158;DHT22;23050;51.776;22.638;2023-05-29T12:04:12;26.40;1.00
37158;DHT22;23050;51.776;22.638;2023-05-29T12:06:38;26.60;1.00
37158;DHT22;23050;51.776;22.638;2023-05-29T12:09:04;26.60;1.00
37158;DHT22;23050;51.776;22.638;2023-05-29T12:11:30;27.30;1.00
37158;DHT22;23050;51.776;22.638;2023-05-29T12:13:59;27.00;1.00
37158;DHT22;23050;51.776;22.638;2023-05-29T12:16:27;27.70;1.00
37158;DHT22;23050;51.776;22.638;2023-05-29T12:18:55;27.50;1.00
37158;DHT22;23050;51.776;22.638;2023-05-29T12:21:21;27.20;1.00
37158;DHT22;23050;51.776;22.638;2023-05-29T12:23:46;27.30;1.00
37158;DHT22;23050;51.776;22.638;2023-05-29T12:26:12;26.50;1.00
37158;DHT22;23050;51.776;22.638;2023-05-29T12:28:47;25.80;1.00
37158;DHT22;23050;51.776;22.638;2023-05-29T12:31:13;25.10;1.00
37158;DHT22;23050;51.776;22.638;2023-05-29T12:33:42;25.10;1.00
37158;DHT22;23050;51.776;22.638;2023-05-29T12:36:08;25.90;1.00
37158;DHT22;23050;51.776;22.638;2023-05-29T12:38:45;27.00;1.00
37158;DHT22;23050;51.776;22.638;2023-05-29T12:41:21;28.00;1.00
37158;DHT22;23050;51.776;22.638;2023-05-29T12:43:46;28.10;1.00
37158;DHT22;23050;51.776;22.638;2023-05-29T12:46:12;26.90;1.00
37158;DHT22;23050;51.776;22.638;2023-05-29T12:48:38;26.40;1.00
37158;DHT22;23050;51.776;22.638;2023-05-29T12:51:04;26.20;1.00
37158;DHT22;23050;51.776;22.638;2023-05-29T12:53:30;26.30;1.00
37158;DHT22;23050;51.776;22.638;2023-05-29T12:55:55;25.80;1.00
37158;DHT22;23050;51.776;22.638;2023-05-29T12:58:22;25.20;1.00
37158;DHT22;23050;51.776;22.638;2023-05-29T13:00:51;24.30;1.00
37158;DHT22;23050;51.776;22.638;2023-05-29T13:03:20;24.00;1.00
37158;DHT22;23050;51.776;22.638;2023-05-29T13:05:49;24.20;1.00
37158;DHT22;23050;51.776;22.638;2023-05-29T13:08:14;24.60;1.00
37158;DHT22;23050;51.776;22.638;2023-05-29T13:10:40;25.10;1.00
37158;DHT22;23050;51.776;22.638;2023-05-29T13:13:05;25.80;1.00
37158;DHT22;23050;51.776;22.638;2023-05-29T13:15:31;25.70;1.00
37158;DHT22;23050;51.776;22.638;2023-05-29T13:17:59;25.50;1.00
37158;DHT22;23050;51.776;22.638;2023-05-29T13:20:24;25.80;1.00
37158;DHT22;23050;51.776;22.638;2023-05-29T13:22:50;26.90;1.00
37158;DHT22;23050;51.776;22.638;2023-05-29T13:25:16;27.60;1.00
37158;DHT22;23050;51.776;22.638;2023-05-29T13:27:43;28.60;1.00
37158;DHT22;23050;51.776;22.638;2023-05-29T13:30:09;29.20;1.00
37158;DHT22;23050;51.776;22.638;2023-05-29T13:32:35;29.90;1.00
37158;DHT22;23050;51.776;22.638;2023-05-29T13:35:01;29.40;1.00
37158;DHT22;23050;51.776;22.638;2023-05-29T13:37:26;28.90;1.00
37158;DHT22;23050;51.776;22.638;2023-05-29T13:39:53;29.50;1.00
37158;DHT22;23050;51.776;22.638;2023-05-29T13:42:18;30.10;1.00
37158;DHT22;23050;51.776;22.638;2023-05-29T13:44:44;30.60;1.00
37158;DHT22;23050;51.776;22.638;2023-05-29T13:47:10;30.70;1.00
37158;DHT22;23050;51.776;22.638;2023-05-29T13:49:35;30.80;1.00
37158;DHT22;23050;51.776;22.638;2023-05-29T13:52:04;31.00;1.00
37158;DHT22;23050;51.776;22.638;2023-05-29T13:54:29;30.80;1.00
37158;DHT22;23050;51.776;22.638;2023-05-29T13:56:57;30.80;1.00
37158;DHT22;23050;51.776;22.638;2023-05-29T13:59:23;30.50;1.00
37158;DHT22;23050;51.776;22.638;2023-05-29T14:01:49;29.70;1.00
37158;DHT22;23050;51.776;22.638;2023-05-29T14:04:14;29.30;1.00
37158;DHT22;23050;51.776;22.638;2023-05-29T14:06:40;29.60;1.00
37158;DHT22;23050;51.776;22.638;2023-05-29T14:09:05;30.30;1.00
37158;DHT22;23050;51.776;22.638;2023-05-29T14:11:35;30.70;1.00
37158;DHT22;23050;51.776;22.638;2023-05-29T14:14:02;30.70;1.00
37158;DHT22;23050;51.776;22.638;2023-05-29T14:16:28;31.10;1.00
37158;DHT22;23050;51.776;22.638;2023-05-29T14:18:53;31.20;1.00
37158;DHT22;23050;51.776;22.638;2023-05-29T14:21:19;30.60;1.00
37158;DHT22;23050;51.776;22.638;2023-05-29T14:23:46;30.30;1.00
37158;DHT22;23050;51.776;22.638;2023-05-29T14:26:11;29.70;1.00
37158;DHT22;23050;51.776;22.638;2023-05-29T14:28:37;29.30;1.00
37158;DHT22;23050;51.776;22.638;2023-05-29T14:31:02;29.70;1.00
37158;DHT22;23050;51.776;22.638;2023-05-29T14:33:28;29.40;1.00
37158;DHT22;23050;51.776;22.638;2023-05-29T14:35:53;29.40;1.00
37158;DHT22;23050;51.776;22.638;2023-05-29T14:38:18;29.90;1.00
37158;DHT22;23050;51.776;22.638;2023-05-29T14:40:44;30.20;1.00
37158;DHT22;23050;51.776;22.638;2023-05-29T14:43:09;30.60;1.00
37158;DHT22;23050;51.776;22.638;2023-05-29T14:45:35;30.90;1.00
37158;DHT22;23050;51.776;22.638;2023-05-29T14:48:01;30.60;1.00
37158;DHT22;23050;51.776;22.638;2023-05-29T14:50:27;30.30;1.00
37158;DHT22;23050;51.776;22.638;2023-05-29T14:52:52;30.50;1.00
37158;DHT22;23050;51.776;22.638;2023-05-29T14:55:18;30.60;1.00
37158;DHT22;23050;51.776;22.638;2023-05-29T14:57:43;30.60;1.00
37158;DHT22;23050;51.776;22.638;2023-05-29T15:00:09;30.60;1.00
37158;DHT22;23050;51.776;22.638;2023-05-29T15:02:34;30.70;1.00
37158;DHT22;23050;51.776;22.638;2023-05-29T15:05:00;30.20;1.00
37158;DHT22;23050;51.776;22.638;2023-05-29T15:07:25;29.70;1.00
37158;DHT22;23050;51.776;22.638;2023-05-29T15:09:51;29.90;1.00
37158;DHT22;23050;51.776;22.638;2023-05-29T15:12:17;30.10;1.00
37158;DHT22;23050;51.776;22.638;2023-05-29T15:14:42;30.30;1.00
37158;DHT22;23050;51.776;22.638;2023-05-29T15:17:08;30.50;1.00
37158;DHT22;23050;51.776;22.638;2023-05-29T15:19:33;30.50;1.00
37158;DHT22;23050;51.776;22.638;2023-05-29T15:21:59;30.80;1.00
37158;DHT22;23050;51.776;22.638;2023-05-29T15:24:24;30.90;1.00
37158;DHT22;23050;51.776;22.638;2023-05-29T15:26:50;30.80;1.00
37158;DHT22;23050;51.776;22.638;2023-05-29T15:29:16;30.40;1.00
37158;DHT22;23050;51.776;22.638;2023-05-29T15:31:41;29.50;1.00
37158;DHT22;23050;51.776;22.638;2023-05-29T15:34:07;29.30;1.00
37158;DHT22;23050;51.776;22.638;2023-05-29T15:36:33;29.20;1.00
37158;DHT22;23050;51.776;22.638;2023-05-29T15:38:58;29.20;1.00
37158;DHT22;23050;51.776;22.638;2023-05-29T15:41:24;29.20;1.00
37158;DHT22;23050;51.776;22.638;2023-05-29T15:43:57;29.20;1.00
37158;DHT22;23050;51.776;22.638;2023-05-29T15:46:26;29.40;1.00
37158;DHT22;23050;51.776;22.638;2023-05-29T15:48:51;29.00;1.00
37158;DHT22;23050;51.776;22.638;2023-05-29T15:51:17;29.20;1.00
37158;DHT22;23050;51.776;22.638;2023-05-29T15:53:42;29.10;1.00